sensor_id;sensor_type;location;lat;lon;timestamp;temperature;humidity
19892;DHT22;10108;50.142;8.724;2024-03-25T00:00:33;8.60;99.90
19892;DHT22;10108;50.142;8.724;2024-03-25T00:03:00;8.60;99.90
19892;DHT22;10108;50.142;8.724;2024-03-25T00:05:26;8.60;99.90
19892;DHT22;10108;50.142;8.724;2024-03-25T00:07:54;8.60;99.90
19892;DHT22;10108;50.142;8.724;2024-03-25T00:10:20;8.50;99.90
19892;DHT22;10108;50.142;8.724;2024-03-25T00:12:47;8.50;99.90
19892;DHT22;10108;50.142;8.724;2024-03-25T00:15:19;8.60;99.90
19892;DHT22;10108;50.142;8.724;2024-03-25T00:17:47;8.60;99.90
19892;DHT22;10108;50.142;8.724;2024-03-25T00:20:13;8.50;99.90
19892;DHT22;10108;50.142;8.724;2024-03-25T00:22:41;8.50;99.90
19892;DHT22;10108;50.142;8.724;2024-03-25T00:25:08;8.60;99.90
19892;DHT22;10108;50.142;8.724;2024-03-25T00:27:35;8.60;99.90
19892;DHT22;10108;50.142;8.724;2024-03-25T00:30:01;8.60;99.90
19892;DHT22;10108;50.142;8.724;2024-03-25T00:32:28;8.60;99.90
19892;DHT22;10108;50.142;8.724;2024-03-25T00:34:54;8.60;99.90
19892;DHT22;10108;50.142;8.724;2024-03-25T00:37:20;8.60;99.90
19892;DHT22;10108;50.142;8.724;2024-03-25T00:39:49;8.50;99.90
19892;DHT22;10108;50.142;8.724;2024-03-25T00:42:15;8.50;99.90
19892;DHT22;10108;50.142;8.724;2024-03-25T00:44:41;8.50;99.90
19892;DHT22;10108;50.142;8.724;2024-03-25T00:47:07;8.40;99.90
19892;DHT22;10108;50.142;8.724;2024-03-25T00:49:34;8.30;99.90
19892;DHT22;10108;50.142;8.724;2024-03-25T00:52:00;8.20;99.90
19892;DHT22;10108;50.142;8.724;2024-03-25T00:54:27;8.10;99.90
19892;DHT22;10108;50.142;8.724;2024-03-25T00:56:53;8.00;99.90
19892;DHT22;10108;50.142;8.724;2024-03-25T00:59:19;8.00;99.90
19892;DHT22;10108;50.142;8.724;2024-03-25T01:01:46;7.90;99.90
19892;DHT22;10108;50.142;8.724;2024-03-25T01:04:12;7.90;99.90
19892;DHT22;10108;50.142;8.724;2024-03-25T01:06:39;7.90;99.90
19892;DHT22;10108;50.142;8.724;2024-03-25T01:09:05;7.90;99.90
19892;DHT22;10108;50.142;8.724;2024-03-25T01:11:33;7.90;99.90
19892;DHT22;10108;50.142;8.724;2024-03-25T01:14:00;8.00;99.90
19892;DHT22;10108;50.142;8.724;2024-03-25T01:16:26;8.10;99.90
19892;DHT22;10108;50.142;8.724;2024-03-25T01:18:53;8.10;99.90
19892;DHT22;10108;50.142;8.724;2024-03-25T01:21:19;8.10;99.90
19892;DHT22;10108;50.142;8.724;2024-03-25T01:23:46;8.00;99.90
19892;DHT22;10108;50.142;8.724;2024-03-25T01:26:12;7.90;99.90
19892;DHT22;10108;50.142;8.724;2024-03-25T01:28:38;7.80;99.90
19892;DHT22;10108;50.142;8.724;2024-03-25T01:31:04;7.80;99.90
19892;DHT22;10108;50.142;8.724;2024-03-25T01:33:31;7.70;99.90
19892;DHT22;10108;50.142;8.724;2024-03-25T01:35:57;7.70;99.90
19892;DHT22;10108;50.142;8.724;2024-03-25T01:38:23;7.80;99.90
19892;DHT22;10108;50.142;8.724;2024-03-25T01:40:49;7.70;99.90
19892;DHT22;10108;50.142;8.724;2024-03-25T01:43:16;7.80;99.90
19892;DHT22;10108;50.142;8.724;2024-03-25T01:45:44;7.80;99.90
19892;DHT22;10108;50.142;8.724;2024-03-25T01:48:11;7.80;99.90
19892;DHT22;10108;50.142;8.724;2024-03-25T01:50:42;7.80;99.90
19892;DHT22;10108;50.142;8.724;2024-03-25T01:53:11;7.80;99.90
19892;DHT22;10108;50.142;8.724;2024-03-25T01:55:38;7.80;99.90
19892;DHT22;10108;50.142;8.724;2024-03-25T01:58:11;7.80;99.90
19892;DHT22;10108;50.142;8.724;2024-03-25T02:00:40;7.80;99.90
19892;DHT22;10108;50.142;8.724;2024-03-25T02:03:06;7.80;99.90
19892;DHT22;10108;50.142;8.724;2024-03-25T02:05:34;7.70;99.90
19892;DHT22;10108;50.142;8.724;2024-03-25T02:08:01;7.80;99.90
19892;DHT22;10108;50.142;8.724;2024-03-25T02:10:29;7.80;99.90
19892;DHT22;10108;50.142;8.724;2024-03-25T02:12:56;7.80;99.90
19892;DHT22;10108;50.142;8.724;2024-03-25T02:15:22;7.80;99.90
19892;DHT22;10108;50.142;8.724;2024-03-25T02:17:48;7.80;99.90
19892;DHT22;10108;50.142;8.724;2024-03-25T02:20:15;7.90;99.90
19892;DHT22;10108;50.142;8.724;2024-03-25T02:22:42;7.80;99.90
19892;DHT22;10108;50.142;8.724;2024-03-25T02:25:10;7.90;99.90
19892;DHT22;10108;50.142;8.724;2024-03-25T02:27:39;7.90;99.90
19892;DHT22;10108;50.142;8.724;2024-03-25T02:30:07;7.90;99.90
19892;DHT22;10108;50.142;8.724;2024-03-25T02:32:35;7.90;99.90
19892;DHT22;10108;50.142;8.724;2024-03-25T02:35:03;7.90;99.90
19892;DHT22;10108;50.142;8.724;2024-03-25T02:37:30;7.90;99.90
19892;DHT22;10108;50.142;8.724;2024-03-25T02:39:58;7.80;99.90
19892;DHT22;10108;50.142;8.724;2024-03-25T02:42:25;7.80;99.90
19892;DHT22;10108;50.142;8.724;2024-03-25T02:44:58;7.70;99.90
19892;DHT22;10108;50.142;8.724;2024-03-25T02:47:25;7.70;99.90
19892;DHT22;10108;50.142;8.724;2024-03-25T02:49:51;7.70;99.90
19892;DHT22;10108;50.142;8.724;2024-03-25T02:52:21;7.70;99.90
19892;DHT22;10108;50.142;8.724;2024-03-25T02:54:47;7.70;99.90
19892;DHT22;10108;50.142;8.724;2024-03-25T02:57:13;7.60;99.90
19892;DHT22;10108;50.142;8.724;2024-03-25T02:59:39;7.60;99.90
19892;DHT22;10108;50.142;8.724;2024-03-25T03:02:06;7.70;99.90
19892;DHT22;10108;50.142;8.724;2024-03-25T03:04:32;7.70;99.90
19892;DHT22;10108;50.142;8.724;2024-03-25T03:06:58;7.70;99.90
19892;DHT22;10108;50.142;8.724;2024-03-25T03:09:25;7.70;99.90
19892;DHT22;10108;50.142;8.724;2024-03-25T03:11:51;7.80;99.90
19892;DHT22;10108;50.142;8.724;2024-03-25T03:14:17;7.80;99.90
19892;DHT22;10108;50.142;8.724;2024-03-25T03:16:44;7.70;99.90
19892;DHT22;10108;50.142;8.724;2024-03-25T03:19:10;7.70;99.90
19892;DHT22;10108;50.142;8.724;2024-03-25T03:21:36;7.70;99.90
19892;DHT22;10108;50.142;8.724;2024-03-25T03:24:03;7.70;99.90
19892;DHT22;10108;50.142;8.724;2024-03-25T03:26:30;7.70;99.90
19892;DHT22;10108;50.142;8.724;2024-03-25T03:28:57;7.80;99.90
19892;DHT22;10108;50.142;8.724;2024-03-25T03:31:23;7.70;99.90
19892;DHT22;10108;50.142;8.724;2024-03-25T03:33:50;7.80;99.90
19892;DHT22;10108;50.142;8.724;2024-03-25T03:36:22;7.80;99.90
19892;DHT22;10108;50.142;8.724;2024-03-25T03:38:51;7.90;99.90
19892;DHT22;10108;50.142;8.724;2024-03-25T03:41:17;7.90;99.90
19892;DHT22;10108;50.142;8.724;2024-03-25T03:43:43;7.80;99.90
19892;DHT22;10108;50.142;8.724;2024-03-25T03:46:10;7.90;99.90
19892;DHT22;10108;50.142;8.724;2024-03-25T03:48:36;7.90;99.90
19892;DHT22;10108;50.142;8.724;2024-03-25T03:51:08;7.90;99.90
19892;DHT22;10108;50.142;8.724;2024-03-25T03:53:34;7.90;99.90
19892;DHT22;10108;50.142;8.724;2024-03-25T03:56:02;7.90;99.90
19892;DHT22;10108;50.142;8.724;2024-03-25T03:58:32;7.80;99.90
19892;DHT22;10108;50.142;8.724;2024-03-25T04:00:58;7.80;99.90
19892;DHT22;10108;50.142;8.724;2024-03-25T04:03:25;7.70;99.90
19892;DHT22;10108;50.142;8.724;2024-03-25T04:05:51;7.70;99.90
19892;DHT22;10108;50.142;8.724;2024-03-25T04:08:17;7.60;99.90
19892;DHT22;10108;50.142;8.724;2024-03-25T04:10:45;7.60;99.90
19892;DHT22;10108;50.142;8.724;2024-03-25T04:13:11;7.50;99.90
19892;DHT22;10108;50.142;8.724;2024-03-25T04:15:40;7.50;99.90
19892;DHT22;10108;50.142;8.724;2024-03-25T04:18:07;7.50;99.90
19892;DHT22;10108;50.142;8.724;2024-03-25T04:20:40;7.60;99.90
19892;DHT22;10108;50.142;8.724;2024-03-25T04:23:07;7.60;99.90
19892;DHT22;10108;50.142;8.724;2024-03-25T04:25:34;7.60;99.90
19892;DHT22;10108;50.142;8.724;2024-03-25T04:28:00;7.60;99.90
19892;DHT22;10108;50.142;8.724;2024-03-25T04:30:26;7.60;99.90
19892;DHT22;10108;50.142;8.724;2024-03-25T04:32:53;7.60;99.90
19892;DHT22;10108;50.142;8.724;2024-03-25T04:35:19;7.60;99.90
19892;DHT22;10108;50.142;8.724;2024-03-25T04:37:46;7.60;99.90
19892;DHT22;10108;50.142;8.724;2024-03-25T04:40:12;7.60;99.90
19892;DHT22;10108;50.142;8.724;2024-03-25T04:42:45;7.60;99.90
19892;DHT22;10108;50.142;8.724;2024-03-25T04:45:11;7.60;99.90
19892;DHT22;10108;50.142;8.724;2024-03-25T04:47:40;7.50;99.90
19892;DHT22;10108;50.142;8.724;2024-03-25T04:50:07;7.50;99.90
19892;DHT22;10108;50.142;8.724;2024-03-25T04:52:34;7.50;99.90
19892;DHT22;10108;50.142;8.724;2024-03-25T04:55:00;7.40;99.90
19892;DHT22;10108;50.142;8.724;2024-03-25T04:57:26;7.40;99.90
19892;DHT22;10108;50.142;8.724;2024-03-25T04:59:52;7.40;99.90
19892;DHT22;10108;50.142;8.724;2024-03-25T05:02:19;7.40;99.90
19892;DHT22;10108;50.142;8.724;2024-03-25T05:04:45;7.30;99.90
19892;DHT22;10108;50.142;8.724;2024-03-25T05:07:11;7.30;99.90
19892;DHT22;10108;50.142;8.724;2024-03-25T05:09:37;7.30;99.90
19892;DHT22;10108;50.142;8.724;2024-03-25T05:12:04;7.20;99.90
19892;DHT22;10108;50.142;8.724;2024-03-25T05:14:30;7.20;99.90
19892;DHT22;10108;50.142;8.724;2024-03-25T05:16:56;7.20;99.90
19892;DHT22;10108;50.142;8.724;2024-03-25T05:19:26;7.20;99.90
19892;DHT22;10108;50.142;8.724;2024-03-25T05:21:52;7.20;99.90
19892;DHT22;10108;50.142;8.724;2024-03-25T05:24:18;7.20;99.90
19892;DHT22;10108;50.142;8.724;2024-03-25T05:26:44;7.10;99.90
19892;DHT22;10108;50.142;8.724;2024-03-25T05:29:11;7.10;99.90
19892;DHT22;10108;50.142;8.724;2024-03-25T05:31:37;7.20;99.90
19892;DHT22;10108;50.142;8.724;2024-03-25T05:34:04;7.20;99.90
19892;DHT22;10108;50.142;8.724;2024-03-25T05:36:34;7.20;99.90
19892;DHT22;10108;50.142;8.724;2024-03-25T05:39:00;7.20;99.90
19892;DHT22;10108;50.142;8.724;2024-03-25T05:41:27;7.20;99.90
19892;DHT22;10108;50.142;8.724;2024-03-25T05:43:53;7.20;99.90
19892;DHT22;10108;50.142;8.724;2024-03-25T05:46:20;7.20;99.90
19892;DHT22;10108;50.142;8.724;2024-03-25T05:48:46;7.20;99.90
19892;DHT22;10108;50.142;8.724;2024-03-25T05:51:12;7.20;99.90
19892;DHT22;10108;50.142;8.724;2024-03-25T05:53:38;7.30;99.90
19892;DHT22;10108;50.142;8.724;2024-03-25T05:56:05;7.30;99.90
19892;DHT22;10108;50.142;8.724;2024-03-25T05:58:31;7.30;99.90
19892;DHT22;10108;50.142;8.724;2024-03-25T06:00:57;7.30;99.90
19892;DHT22;10108;50.142;8.724;2024-03-25T06:03:24;7.30;99.90
19892;DHT22;10108;50.142;8.724;2024-03-25T06:05:50;7.30;99.90
19892;DHT22;10108;50.142;8.724;2024-03-25T06:08:19;7.30;99.90
19892;DHT22;10108;50.142;8.724;2024-03-25T06:11:01;7.30;99.90
19892;DHT22;10108;50.142;8.724;2024-03-25T06:13:28;7.30;99.90
19892;DHT22;10108;50.142;8.724;2024-03-25T06:15:54;7.30;99.90
19892;DHT22;10108;50.142;8.724;2024-03-25T06:18:20;7.30;99.90
19892;DHT22;10108;50.142;8.724;2024-03-25T06:20:48;7.40;99.90
19892;DHT22;10108;50.142;8.724;2024-03-25T06:23:27;7.50;99.90
19892;DHT22;10108;50.142;8.724;2024-03-25T06:25:55;7.50;99.90
19892;DHT22;10108;50.142;8.724;2024-03-25T06:28:23;7.60;99.90
19892;DHT22;10108;50.142;8.724;2024-03-25T06:30:51;7.60;99.90
19892;DHT22;10108;50.142;8.724;2024-03-25T06:33:36;7.60;99.90
19892;DHT22;10108;50.142;8.724;2024-03-25T06:36:21;7.60;99.90
19892;DHT22;10108;50.142;8.724;2024-03-25T06:38:48;7.60;99.90
19892;DHT22;10108;50.142;8.724;2024-03-25T06:41:14;7.60;99.90
19892;DHT22;10108;50.142;8.724;2024-03-25T06:43:40;7.60;99.90
19892;DHT22;10108;50.142;8.724;2024-03-25T06:46:37;7.60;99.90
19892;DHT22;10108;50.142;8.724;2024-03-25T06:49:09;7.60;99.90
19892;DHT22;10108;50.142;8.724;2024-03-25T06:52:02;7.60;99.90
19892;DHT22;10108;50.142;8.724;2024-03-25T06:54:36;7.50;99.90
19892;DHT22;10108;50.142;8.724;2024-03-25T06:57:29;7.50;99.90
19892;DHT22;10108;50.142;8.724;2024-03-25T07:00:12;7.50;99.90
19892;DHT22;10108;50.142;8.724;2024-03-25T07:02:41;7.50;99.90
19892;DHT22;10108;50.142;8.724;2024-03-25T07:05:24;7.50;99.90
19892;DHT22;10108;50.142;8.724;2024-03-25T07:07:51;7.60;99.90
19892;DHT22;10108;50.142;8.724;2024-03-25T07:10:17;7.60;99.90
19892;DHT22;10108;50.142;8.724;2024-03-25T07:13:06;7.70;99.90
19892;DHT22;10108;50.142;8.724;2024-03-25T07:15:33;7.70;99.90
19892;DHT22;10108;50.142;8.724;2024-03-25T07:18:01;7.70;99.90
19892;DHT22;10108;50.142;8.724;2024-03-25T07:20:28;7.70;99.90
19892;DHT22;10108;50.142;8.724;2024-03-25T07:22:54;7.60;99.90
19892;DHT22;10108;50.142;8.724;2024-03-25T07:25:24;7.60;99.90
19892;DHT22;10108;50.142;8.724;2024-03-25T07:27:51;7.60;99.90
19892;DHT22;10108;50.142;8.724;2024-03-25T07:30:21;7.60;99.90
19892;DHT22;10108;50.142;8.724;2024-03-25T07:32:54;7.60;99.90
19892;DHT22;10108;50.142;8.724;2024-03-25T07:35:21;7.70;99.90
19892;DHT22;10108;50.142;8.724;2024-03-25T07:37:47;7.70;99.90
19892;DHT22;10108;50.142;8.724;2024-03-25T07:40:21;7.70;99.90
19892;DHT22;10108;50.142;8.724;2024-03-25T07:42:48;7.70;99.90
19892;DHT22;10108;50.142;8.724;2024-03-25T07:45:15;7.70;99.90
19892;DHT22;10108;50.142;8.724;2024-03-25T07:47:42;7.80;99.90
19892;DHT22;10108;50.142;8.724;2024-03-25T07:50:09;7.70;99.90
19892;DHT22;10108;50.142;8.724;2024-03-25T07:52:35;7.70;99.90
19892;DHT22;10108;50.142;8.724;2024-03-25T07:55:08;7.70;99.90
19892;DHT22;10108;50.142;8.724;2024-03-25T07:57:35;7.70;99.90
19892;DHT22;10108;50.142;8.724;2024-03-25T08:00:02;7.70;99.90
19892;DHT22;10108;50.142;8.724;2024-03-25T08:02:38;7.70;99.90
19892;DHT22;10108;50.142;8.724;2024-03-25T08:05:07;7.60;99.90
19892;DHT22;10108;50.142;8.724;2024-03-25T08:07:34;7.60;99.90
19892;DHT22;10108;50.142;8.724;2024-03-25T08:10:01;7.60;99.90
19892;DHT22;10108;50.142;8.724;2024-03-25T08:12:29;7.60;99.90
19892;DHT22;10108;50.142;8.724;2024-03-25T08:14:57;7.60;99.90
19892;DHT22;10108;50.142;8.724;2024-03-25T08:17:23;7.70;99.90
19892;DHT22;10108;50.142;8.724;2024-03-25T08:19:50;7.70;99.90
19892;DHT22;10108;50.142;8.724;2024-03-25T08:22:19;7.70;99.90
19892;DHT22;10108;50.142;8.724;2024-03-25T08:24:46;7.80;99.90
19892;DHT22;10108;50.142;8.724;2024-03-25T08:27:12;7.70;99.90
19892;DHT22;10108;50.142;8.724;2024-03-25T08:29:38;7.80;99.90
19892;DHT22;10108;50.142;8.724;2024-03-25T08:32:05;7.80;99.90
19892;DHT22;10108;50.142;8.724;2024-03-25T08:34:31;7.80;99.90
19892;DHT22;10108;50.142;8.724;2024-03-25T08:36:57;7.90;99.90
19892;DHT22;10108;50.142;8.724;2024-03-25T08:39:24;7.90;99.90
19892;DHT22;10108;50.142;8.724;2024-03-25T08:41:50;8.00;99.90
19892;DHT22;10108;50.142;8.724;2024-03-25T08:44:16;8.00;99.90
19892;DHT22;10108;50.142;8.724;2024-03-25T08:46:43;8.00;99.90
19892;DHT22;10108;50.142;8.724;2024-03-25T08:49:09;8.10;99.90
19892;DHT22;10108;50.142;8.724;2024-03-25T08:51:36;8.20;99.90
19892;DHT22;10108;50.142;8.724;2024-03-25T08:54:02;8.20;99.90
19892;DHT22;10108;50.142;8.724;2024-03-25T08:56:29;8.20;99.90
19892;DHT22;10108;50.142;8.724;2024-03-25T08:58:56;8.30;99.90
19892;DHT22;10108;50.142;8.724;2024-03-25T09:01:23;8.40;99.90
19892;DHT22;10108;50.142;8.724;2024-03-25T09:03:50;8.50;99.90
19892;DHT22;10108;50.142;8.724;2024-03-25T09:06:17;8.50;99.90
19892;DHT22;10108;50.142;8.724;2024-03-25T09:08:43;8.50;99.90
19892;DHT22;10108;50.142;8.724;2024-03-25T09:11:29;8.50;99.90
19892;DHT22;10108;50.142;8.724;2024-03-25T09:13:58;8.40;99.90
19892;DHT22;10108;50.142;8.724;2024-03-25T09:16:25;8.40;99.40
19892;DHT22;10108;50.142;8.724;2024-03-25T09:18:51;8.30;99.90
19892;DHT22;10108;50.142;8.724;2024-03-25T09:21:17;8.30;99.90
19892;DHT22;10108;50.142;8.724;2024-03-25T09:23:43;8.40;99.90
19892;DHT22;10108;50.142;8.724;2024-03-25T09:26:10;8.40;99.90
19892;DHT22;10108;50.142;8.724;2024-03-25T09:28:37;8.40;99.90
19892;DHT22;10108;50.142;8.724;2024-03-25T09:31:03;8.40;99.90
19892;DHT22;10108;50.142;8.724;2024-03-25T09:33:31;8.40;99.90
19892;DHT22;10108;50.142;8.724;2024-03-25T09:35:57;8.40;99.90
19892;DHT22;10108;50.142;8.724;2024-03-25T09:38:25;8.40;99.90
19892;DHT22;10108;50.142;8.724;2024-03-25T09:40:53;8.40;99.90
19892;DHT22;10108;50.142;8.724;2024-03-25T09:43:33;8.50;99.90
19892;DHT22;10108;50.142;8.724;2024-03-25T09:46:04;8.50;99.90
19892;DHT22;10108;50.142;8.724;2024-03-25T09:48:30;8.50;99.90
19892;DHT22;10108;50.142;8.724;2024-03-25T09:50:57;8.60;99.90
19892;DHT22;10108;50.142;8.724;2024-03-25T09:53:24;8.60;99.90
19892;DHT22;10108;50.142;8.724;2024-03-25T09:55:50;8.60;99.90
19892;DHT22;10108;50.142;8.724;2024-03-25T09:58:18;8.70;99.90
19892;DHT22;10108;50.142;8.724;2024-03-25T10:00:45;8.60;99.90
19892;DHT22;10108;50.142;8.724;2024-03-25T10:03:12;8.60;99.90
19892;DHT22;10108;50.142;8.724;2024-03-25T10:05:42;8.70;99.90
19892;DHT22;10108;50.142;8.724;2024-03-25T10:08:08;8.70;99.90
19892;DHT22;10108;50.142;8.724;2024-03-25T10:10:36;8.70;99.90
19892;DHT22;10108;50.142;8.724;2024-03-25T10:13:05;8.60;99.90
19892;DHT22;10108;50.142;8.724;2024-03-25T10:15:33;8.60;99.90
19892;DHT22;10108;50.142;8.724;2024-03-25T10:18:01;8.60;99.20
19892;DHT22;10108;50.142;8.724;2024-03-25T10:20:27;8.60;98.70
19892;DHT22;10108;50.142;8.724;2024-03-25T10:22:53;8.70;99.10
19892;DHT22;10108;50.142;8.724;2024-03-25T10:25:25;8.70;99.60
19892;DHT22;10108;50.142;8.724;2024-03-25T10:27:56;8.80;99.90
19892;DHT22;10108;50.142;8.724;2024-03-25T10:30:22;8.80;99.90
19892;DHT22;10108;50.142;8.724;2024-03-25T10:32:59;8.90;99.90
19892;DHT22;10108;50.142;8.724;2024-03-25T10:35:27;8.90;99.90
19892;DHT22;10108;50.142;8.724;2024-03-25T10:38:09;8.90;99.90
19892;DHT22;10108;50.142;8.724;2024-03-25T10:40:38;8.90;99.90
19892;DHT22;10108;50.142;8.724;2024-03-25T10:43:05;9.00;99.90
19892;DHT22;10108;50.142;8.724;2024-03-25T10:45:37;9.10;99.90
19892;DHT22;10108;50.142;8.724;2024-03-25T10:48:12;9.10;99.90
19892;DHT22;10108;50.142;8.724;2024-03-25T10:50:43;9.10;99.90
19892;DHT22;10108;50.142;8.724;2024-03-25T10:53:10;9.10;99.90
19892;DHT22;10108;50.142;8.724;2024-03-25T10:55:37;9.10;99.90
19892;DHT22;10108;50.142;8.724;2024-03-25T10:58:04;9.20;99.90
19892;DHT22;10108;50.142;8.724;2024-03-25T11:00:35;9.20;99.90
19892;DHT22;10108;50.142;8.724;2024-03-25T11:03:04;9.20;99.90
19892;DHT22;10108;50.142;8.724;2024-03-25T11:06:03;9.30;99.90
19892;DHT22;10108;50.142;8.724;2024-03-25T11:08:38;9.30;99.90
19892;DHT22;10108;50.142;8.724;2024-03-25T11:11:47;9.40;99.90
19892;DHT22;10108;50.142;8.724;2024-03-25T11:14:36;9.50;99.90
19892;DHT22;10108;50.142;8.724;2024-03-25T11:17:21;9.50;99.90
19892;DHT22;10108;50.142;8.724;2024-03-25T11:20:16;9.60;99.90
19892;DHT22;10108;50.142;8.724;2024-03-25T11:23:13;9.60;99.90
19892;DHT22;10108;50.142;8.724;2024-03-25T11:25:54;9.70;99.90
19892;DHT22;10108;50.142;8.724;2024-03-25T11:28:36;9.70;99.80
19892;DHT22;10108;50.142;8.724;2024-03-25T11:31:02;9.70;99.60
19892;DHT22;10108;50.142;8.724;2024-03-25T11:33:44;9.80;99.50
19892;DHT22;10108;50.142;8.724;2024-03-25T11:36:26;9.80;99.00
19892;DHT22;10108;50.142;8.724;2024-03-25T11:38:59;9.80;98.60
19892;DHT22;10108;50.142;8.724;2024-03-25T11:41:46;9.90;99.90
19892;DHT22;10108;50.142;8.724;2024-03-25T11:44:20;9.80;99.20
19892;DHT22;10108;50.142;8.724;2024-03-25T11:46:50;9.80;99.30
19892;DHT22;10108;50.142;8.724;2024-03-25T11:49:27;9.90;99.90
19892;DHT22;10108;50.142;8.724;2024-03-25T11:51:53;9.90;99.60
19892;DHT22;10108;50.142;8.724;2024-03-25T11:54:26;10.00;98.70
19892;DHT22;10108;50.142;8.724;2024-03-25T11:57:07;10.00;98.40
19892;DHT22;10108;50.142;8.724;2024-03-25T11:59:34;10.00;99.90
19892;DHT22;10108;50.142;8.724;2024-03-25T12:02:01;10.10;99.90
19892;DHT22;10108;50.142;8.724;2024-03-25T12:04:32;10.10;99.90
19892;DHT22;10108;50.142;8.724;2024-03-25T12:07:18;10.10;99.90
19892;DHT22;10108;50.142;8.724;2024-03-25T12:09:45;10.10;99.90
19892;DHT22;10108;50.142;8.724;2024-03-25T12:12:32;10.10;99.70
19892;DHT22;10108;50.142;8.724;2024-03-25T12:15:07;10.10;98.90
19892;DHT22;10108;50.142;8.724;2024-03-25T12:17:33;10.10;99.20
19892;DHT22;10108;50.142;8.724;2024-03-25T12:20:05;10.20;99.20
19892;DHT22;10108;50.142;8.724;2024-03-25T12:22:35;10.20;98.20
19892;DHT22;10108;50.142;8.724;2024-03-25T12:25:05;10.20;98.70
19892;DHT22;10108;50.142;8.724;2024-03-25T12:27:39;10.20;98.90
19892;DHT22;10108;50.142;8.724;2024-03-25T12:30:14;10.20;98.50
19892;DHT22;10108;50.142;8.724;2024-03-25T12:32:42;10.30;99.90
19892;DHT22;10108;50.142;8.724;2024-03-25T12:35:10;10.30;98.80
19892;DHT22;10108;50.142;8.724;2024-03-25T12:37:44;10.30;98.60
19892;DHT22;10108;50.142;8.724;2024-03-25T12:40:25;10.40;97.70
19892;DHT22;10108;50.142;8.724;2024-03-25T12:43:07;10.40;97.10
19892;DHT22;10108;50.142;8.724;2024-03-25T12:45:36;10.40;97.90
19892;DHT22;10108;50.142;8.724;2024-03-25T12:48:07;10.40;98.20
19892;DHT22;10108;50.142;8.724;2024-03-25T12:50:34;10.40;96.80
19892;DHT22;10108;50.142;8.724;2024-03-25T12:53:03;10.40;97.00
19892;DHT22;10108;50.142;8.724;2024-03-25T12:55:32;10.50;97.80
19892;DHT22;10108;50.142;8.724;2024-03-25T12:57:58;10.50;95.90
19892;DHT22;10108;50.142;8.724;2024-03-25T13:00:27;10.40;95.70
19892;DHT22;10108;50.142;8.724;2024-03-25T13:02:55;10.40;94.40
19892;DHT22;10108;50.142;8.724;2024-03-25T13:05:22;10.40;96.20
19892;DHT22;10108;50.142;8.724;2024-03-25T13:07:48;10.50;98.80
19892;DHT22;10108;50.142;8.724;2024-03-25T13:10:14;10.50;98.70
19892;DHT22;10108;50.142;8.724;2024-03-25T13:12:40;10.60;96.60
19892;DHT22;10108;50.142;8.724;2024-03-25T13:15:07;10.60;95.80
19892;DHT22;10108;50.142;8.724;2024-03-25T13:17:34;10.60;99.70
19892;DHT22;10108;50.142;8.724;2024-03-25T13:20:00;10.60;99.90
19892;DHT22;10108;50.142;8.724;2024-03-25T13:22:27;10.60;97.10
19892;DHT22;10108;50.142;8.724;2024-03-25T13:24:53;10.60;95.60
19892;DHT22;10108;50.142;8.724;2024-03-25T13:27:19;10.60;97.20
19892;DHT22;10108;50.142;8.724;2024-03-25T13:29:45;10.60;96.20
19892;DHT22;10108;50.142;8.724;2024-03-25T13:32:12;10.60;96.20
19892;DHT22;10108;50.142;8.724;2024-03-25T13:34:38;10.60;95.30
19892;DHT22;10108;50.142;8.724;2024-03-25T13:37:04;10.50;95.70
19892;DHT22;10108;50.142;8.724;2024-03-25T13:39:31;10.50;95.80
19892;DHT22;10108;50.142;8.724;2024-03-25T13:41:57;10.50;94.90
19892;DHT22;10108;50.142;8.724;2024-03-25T13:44:24;10.50;94.50
19892;DHT22;10108;50.142;8.724;2024-03-25T13:46:51;10.50;95.50
19892;DHT22;10108;50.142;8.724;2024-03-25T13:49:17;10.60;96.30
19892;DHT22;10108;50.142;8.724;2024-03-25T13:51:46;10.60;96.20
19892;DHT22;10108;50.142;8.724;2024-03-25T13:54:12;10.60;94.70
19892;DHT22;10108;50.142;8.724;2024-03-25T13:56:39;10.60;94.40
19892;DHT22;10108;50.142;8.724;2024-03-25T13:59:10;10.50;94.90
19892;DHT22;10108;50.142;8.724;2024-03-25T14:01:39;10.60;95.40
19892;DHT22;10108;50.142;8.724;2024-03-25T14:04:08;10.60;93.90
19892;DHT22;10108;50.142;8.724;2024-03-25T14:06:39;10.50;93.60
19892;DHT22;10108;50.142;8.724;2024-03-25T14:09:13;10.50;93.10
19892;DHT22;10108;50.142;8.724;2024-03-25T14:12:00;10.50;93.70
19892;DHT22;10108;50.142;8.724;2024-03-25T14:14:26;10.50;94.00
19892;DHT22;10108;50.142;8.724;2024-03-25T14:16:55;10.50;93.80
19892;DHT22;10108;50.142;8.724;2024-03-25T14:19:21;10.60;94.50
19892;DHT22;10108;50.142;8.724;2024-03-25T14:21:51;10.60;94.10
19892;DHT22;10108;50.142;8.724;2024-03-25T14:24:17;10.50;94.40
19892;DHT22;10108;50.142;8.724;2024-03-25T14:26:48;10.60;94.30
19892;DHT22;10108;50.142;8.724;2024-03-25T14:29:22;10.60;94.10
19892;DHT22;10108;50.142;8.724;2024-03-25T14:31:48;10.60;94.10
19892;DHT22;10108;50.142;8.724;2024-03-25T14:34:18;10.60;94.60
19892;DHT22;10108;50.142;8.724;2024-03-25T14:37:14;10.60;96.90
19892;DHT22;10108;50.142;8.724;2024-03-25T14:39:41;10.70;96.90
19892;DHT22;10108;50.142;8.724;2024-03-25T14:42:10;10.60;94.80
19892;DHT22;10108;50.142;8.724;2024-03-25T14:44:44;10.60;93.70
19892;DHT22;10108;50.142;8.724;2024-03-25T14:47:13;10.60;94.20
19892;DHT22;10108;50.142;8.724;2024-03-25T14:49:39;10.60;93.80
19892;DHT22;10108;50.142;8.724;2024-03-25T14:52:15;10.60;94.40
19892;DHT22;10108;50.142;8.724;2024-03-25T14:54:41;10.60;94.30
19892;DHT22;10108;50.142;8.724;2024-03-25T14:57:08;10.60;94.70
19892;DHT22;10108;50.142;8.724;2024-03-25T14:59:42;10.60;94.60
19892;DHT22;10108;50.142;8.724;2024-03-25T15:02:08;10.60;94.70
19892;DHT22;10108;50.142;8.724;2024-03-25T15:04:37;10.60;94.40
19892;DHT22;10108;50.142;8.724;2024-03-25T15:07:13;10.50;94.40
19892;DHT22;10108;50.142;8.724;2024-03-25T15:09:40;10.50;94.70
19892;DHT22;10108;50.142;8.724;2024-03-25T15:12:06;10.60;94.60
19892;DHT22;10108;50.142;8.724;2024-03-25T15:14:33;10.60;94.80
19892;DHT22;10108;50.142;8.724;2024-03-25T15:17:02;10.60;95.00
19892;DHT22;10108;50.142;8.724;2024-03-25T15:19:29;10.60;94.70
19892;DHT22;10108;50.142;8.724;2024-03-25T15:21:55;10.60;95.30
19892;DHT22;10108;50.142;8.724;2024-03-25T15:24:23;10.60;94.50
19892;DHT22;10108;50.142;8.724;2024-03-25T15:26:59;10.60;94.40
19892;DHT22;10108;50.142;8.724;2024-03-25T15:29:36;10.60;94.90
19892;DHT22;10108;50.142;8.724;2024-03-25T15:32:09;10.60;94.90
19892;DHT22;10108;50.142;8.724;2024-03-25T15:34:39;10.60;94.90
19892;DHT22;10108;50.142;8.724;2024-03-25T15:37:13;10.60;94.70
19892;DHT22;10108;50.142;8.724;2024-03-25T15:39:43;10.60;94.20
19892;DHT22;10108;50.142;8.724;2024-03-25T15:42:10;10.60;94.70
19892;DHT22;10108;50.142;8.724;2024-03-25T15:44:36;10.60;93.20
19892;DHT22;10108;50.142;8.724;2024-03-25T15:47:05;10.60;91.50
19892;DHT22;10108;50.142;8.724;2024-03-25T15:49:35;10.60;90.00
19892;DHT22;10108;50.142;8.724;2024-03-25T15:52:06;10.70;88.00
19892;DHT22;10108;50.142;8.724;2024-03-25T15:54:33;10.60;89.90